Pagina principale
METAR-TAF:

METAR-TAF

Aeroporti :

Valley, Galles

latitudine: 53-15N, longitudine: 004-32W, altezza: 1 m

Osservazione

Il bollettino è stato emesso 25 minuti fa, alle 12:50 UTC
Vento 16 kt da nord/nord-est
Temperature 8°C
Umidità 66%
Pressione 1019 hPa
Visibilità 10 km o più
Nubi sparse ad un'altezza di 2500 ft

METAR: EGOV 261250Z 02016KT 9999 SCT025 08/02 Q1019 NOSIG RMK BLU BLU

Ora: 13:15 (13:15 UTC)

Previsione

Il bollettino è stato emesso 2 ore e 29 minuti fa, alle 10:46 UTC
Previsione valida dal 26 alle 12 UTC al 26 alle 19 UTC
Vento 14 kt da nord/nord-est
Visibilità 10 km o più
Nubi sparse ad un'altezza di 2800 ft

TAF: EGOV 261046Z 2612/2619 02014KT 9999 SCT028

Osservazioni e previsioni meteorologiche di più di 4000 aeroporti (messaggi METAR e TAF).

Le stazioni disponibili sono rappresentate dai dischi gialli e rossi sulla carta.

Puntare il mouse per vedere il nome della stazione.

Clicca sopra per visualizzare le osservazioni e previsioni meteorologiche.

Per cambiare la mappa : fare clic sui pulsanti verdi con una croce nera per ingrandire, il pulsante verde con un trattino per diminuire, o sulla freccia verde per le mappe adiacenti.


METAR-TAF: